Hovedside
METAR-TAF:

METAR-TAF

Lufthavner :

Kunming Changshui internasjonale lufthavn

Kunming, Kina

breddegrad: 25-01N, lengdegrad: 102-41E, høyde over havet: 1892 m

Gjeldene værobservasjon

Denne rapporten ble laget for 15 minutter siden, klokken 17:00 UTC
Vind 4 kt fra Sør-sørvest
Temperatur 16°C
Luftfuktighet 94%
Trykk 1017 hPa
Sikt: 7000 m

METAR: ZPPP 231700Z 20002MPS 7000 NSC 16/15 Q1017 NOSIG

Tid: 01:15 (17:15 UTC)

Varsel

Denne rapporten ble laget for 10 timer og 10 minutter siden, klokken 07:05 UTC
Varsel gyldig fra 23. klokken 12 UTC til 24. klokken 12 UTC
Vind 8 kt fra Øst-nordøst
Sikt 10 km eller mer
Spredte skyer i en høyde av 2600 ft
Brutte skyer i en høyde av 4000 ft

TAF: ZPPP 230705Z 2312/2412 06004MPS 9999 SCT026 BKN040 TX26/2408Z TN16/2323Z

Værobservasjoner og værvarsel for over 4000 flyplasser (METAR- og TAF-rapporter).

Tilgjengelige stasjoner er representert av de røde og gule prikkene på kartet.

Hold musepekeren over prikken for å se navnet på stasjonen.

Klikk så for å se værobservasjoner og -varsler.

For å forandre kartet kan du klikke på den grønne knappen med svart kryss for å zoome inn, på den grønne knappen med strek for å zoome ut, eller på de grønne pilene for å se tilstøtende kart.


METAR-TAF: